Time;durP1;ratioP1;P1;durP2;ratioP2;P2;SDS_P1;SDS_P2;PMS_P1;PMS_P2;Temp;Humidity;BMP_temperature;BMP_pressure;BME280_temperature;BME280_humidity;BME280_pressure;Samples;Min_cycle;Max_cycle;Signal;HPM_P1;HPM_P2
2022/08/08 00:02:56;;;;;;;2.53;2.30;;;28.70;55.10;;;;;;5082096;28;20448;-68
2022/08/08 00:05:35;;;;;;;2.40;2.20;;;28.70;55.00;;;;;;5090860;28;20590;-69
2022/08/08 00:08:20;;;;;;;2.50;2.40;;;28.70;54.90;;;;;;5090457;28;20515;-68
2022/08/08 00:10:58;;;;;;;2.10;2.00;;;28.60;54.90;;;;;;5091084;28;20960;-68
2022/08/08 00:13:32;;;;;;;2.23;2.13;;;28.60;54.90;;;;;;5088554;28;20509;-69
2022/08/08 00:16:26;;;;;;;2.40;2.30;;;28.60;54.90;;;;;;5089190;28;20552;-69
2022/08/08 00:19:03;;;;;;;1.90;1.80;;;28.60;54.80;;;;;;5091043;28;20449;-69
2022/08/08 00:21:35;;;;;;;2.60;2.50;;;28.60;54.80;;;;;;5096619;28;20441;-69
2022/08/08 00:24:14;;;;;;;2.37;2.27;;;28.60;54.80;;;;;;5094850;28;20788;-68
2022/08/08 00:26:50;;;;;;;2.40;2.30;;;28.60;54.70;;;;;;5095978;28;20464;-69
2022/08/08 00:29:24;;;;;;;2.77;2.57;;;28.60;54.70;;;;;;5095627;28;20510;-69
2022/08/08 00:32:17;;;;;;;2.40;2.13;;;28.60;54.80;;;;;;5094684;28;20444;-69
2022/08/08 00:35:23;;;;;;;2.20;2.10;;;28.60;54.60;;;;;;5105603;28;20461;-69
2022/08/08 00:38:41;;;;;;;2.40;2.30;;;28.60;54.70;;;;;;5093225;28;20937;-68
2022/08/08 00:42:07;;;;;;;3.00;2.80;;;28.60;54.60;;;;;;5047029;28;20852;-69
2022/08/08 00:45:17;;;;;;;2.27;2.13;;;28.60;54.70;;;;;;5076943;28;20453;-68
2022/08/08 00:48:42;;;;;;;2.40;2.30;;;28.60;54.70;;;;;;5089146;28;20931;-68
2022/08/08 00:51:59;;;;;;;2.43;2.33;;;28.60;54.70;;;;;;5065293;28;20905;-68
2022/08/08 00:55:10;;;;;;;2.87;2.77;;;28.70;54.60;;;;;;5084319;28;20516;-68
2022/08/08 00:58:43;;;;;;;2.13;2.03;;;28.90;53.40;;;;;;5083571;28;20466;-68
2022/08/08 01:01:32;;;;;;;3.83;3.53;;;29.10;53.60;;;;;;5087529;28;20468;-68
2022/08/08 01:05:24;;;;;;;2.37;2.27;;;29.00;52.30;;;;;;5080049;28;20467;-68
2022/08/08 01:09:01;;;;;;;2.50;2.40;;;28.70;54.20;;;;;;5089493;28;20466;-68
2022/08/08 01:12:45;;;;;;;3.03;2.83;;;28.70;54.30;;;;;;5057727;28;20461;-68
2022/08/08 01:16:01;;;;;;;2.50;2.40;;;28.80;54.00;;;;;;5012007;28;20484;-68
2022/08/08 01:19:26;;;;;;;2.70;2.60;;;28.90;54.20;;;;;;5092716;28;20541;-68
2022/08/08 01:22:36;;;;;;;2.23;2.13;;;28.90;54.10;;;;;;5055913;28;20830;-68
2022/08/08 01:25:53;;;;;;;2.43;2.33;;;29.00;53.80;;;;;;5066233;28;20978;-68
2022/08/08 01:28:53;;;;;;;3.20;2.90;;;29.00;53.90;;;;;;5058056;28;20456;-68
2022/08/08 01:32:13;;;;;;;3.40;3.20;;;29.00;53.20;;;;;;5054945;28;21282;-68
2022/08/08 01:35:19;;;;;;;2.53;2.43;;;28.70;52.40;;;;;;5030882;28;20507;-68
2022/08/08 01:38:14;;;;;;;2.80;2.60;;;28.20;54.30;;;;;;5060429;28;20481;-68
2022/08/08 01:40:56;;;;;;;3.10;2.97;;;28.10;55.10;;;;;;5073606;28;20500;-69
2022/08/08 01:43:48;;;;;;;2.80;2.60;;;28.20;53.70;;;;;;5089000;28;20846;-68
2022/08/08 01:46:43;;;;;;;3.47;3.17;;;28.10;53.90;;;;;;5092637;28;20908;-68
2022/08/08 01:49:36;;;;;;;2.87;2.67;;;27.90;54.60;;;;;;5089291;28;20460;-68
2022/08/08 01:52:18;;;;;;;2.20;2.10;;;27.90;55.40;;;;;;5084585;28;20575;-68
2022/08/08 01:55:15;;;;;;;2.57;2.47;;;28.00;55.40;;;;;;5080236;28;20499;-68
2022/08/08 01:58:28;;;;;;;2.40;2.30;;;27.90;55.10;;;;;;5079331;28;20461;-67
2022/08/08 02:01:24;;;;;;;2.47;2.37;;;27.90;55.40;;;;;;5081404;28;20476;-67
2022/08/08 02:04:19;;;;;;;2.50;2.40;;;28.00;55.40;;;;;;5082337;28;20460;-68
2022/08/08 02:07:00;;;;;;;3.60;2.73;;;28.20;55.10;;;;;;5074798;28;20495;-68
2022/08/08 02:09:51;;;;;;;2.77;2.67;;;28.30;54.80;;;;;;5090994;28;20505;-68
2022/08/08 02:12:50;;;;;;;2.10;2.00;;;28.40;54.50;;;;;;5071566;28;20477;-68
2022/08/08 02:15:30;;;;;;;2.10;2.00;;;28.50;54.40;;;;;;5054701;28;20511;-68
2022/08/08 02:18:12;;;;;;;1.97;1.87;;;28.60;54.20;;;;;;5059204;28;20446;-68
2022/08/08 02:23:43;;;;;;;2.03;1.93;;;28.60;54.00;;;;;;5071929;28;20452;-68
2022/08/08 02:26:17;;;;;;;2.03;1.93;;;28.60;53.80;;;;;;5054363;28;20462;-68
2022/08/08 02:29:00;;;;;;;2.53;2.43;;;28.60;54.00;;;;;;5084286;28;20994;-68
2022/08/08 02:31:44;;;;;;;2.27;2.17;;;28.70;53.80;;;;;;5091810;28;20792;-68
2022/08/08 02:35:03;;;;;;;2.90;2.70;;;28.40;52.90;;;;;;5083749;28;20985;-68
2022/08/08 02:38:17;;;;;;;2.43;2.33;;;28.20;53.00;;;;;;5083786;28;20468;-68
2022/08/08 02:41:32;;;;;;;2.07;1.97;;;27.80;55.00;;;;;;5085369;28;20465;-68
2022/08/08 02:45:00;;;;;;;2.37;2.27;;;27.70;55.20;;;;;;5064976;28;20797;-68
2022/08/08 02:48:26;;;;;;;2.83;2.63;;;27.80;55.10;;;;;;5088631;28;20483;-68
2022/08/08 02:51:54;;;;;;;3.17;2.97;;;27.80;54.80;;;;;;5069628;28;20526;-68
2022/08/08 02:55:03;;;;;;;2.90;2.40;;;27.70;54.10;;;;;;5069788;28;20455;-68
2022/08/08 02:58:32;;;;;;;2.50;2.40;;;27.40;55.80;;;;;;5064425;28;20913;-68
2022/08/08 03:01:37;;;;;;;2.20;2.10;;;27.40;55.50;;;;;;5078784;28;20812;-68
2022/08/08 03:04:50;;;;;;;3.37;3.17;;;27.50;55.80;;;;;;5092251;28;20452;-68
2022/08/08 03:08:31;;;;;;;3.07;2.87;;;27.30;54.10;;;;;;5049878;28;20475;-68
2022/08/08 03:11:43;;;;;;;3.33;3.03;;;27.20;54.30;;;;;;5073892;28;20458;-68
2022/08/08 03:14:56;;;;;;;5.27;3.03;;;27.00;56.10;;;;;;5062806;28;20460;-67
2022/08/08 03:17:51;;;;;;;2.50;2.40;;;27.10;55.20;;;;;;5071611;28;20440;-67
2022/08/08 03:20:46;;;;;;;2.53;2.43;;;27.20;55.80;;;;;;5054128;28;20458;-67
2022/08/08 03:23:29;;;;;;;3.30;3.10;;;27.40;55.20;;;;;;5061979;28;20467;-67
2022/08/08 03:26:26;;;;;;;2.50;2.40;;;27.40;54.30;;;;;;5057028;28;20457;-67
2022/08/08 03:29:03;;;;;;;2.10;2.00;;;27.50;55.50;;;;;;5090179;28;21179;-67
2022/08/08 03:34:39;;;;;;;2.50;2.30;;;27.80;55.00;;;;;;5072409;28;20465;-67
2022/08/08 03:37:11;;;;;;;2.23;2.07;;;27.90;54.80;;;;;;5075495;28;20461;-67
2022/08/08 03:40:03;;;;;;;2.40;2.30;;;28.00;54.50;;;;;;5081444;28;20551;-67
2022/08/08 03:42:33;;;;;;;2.20;2.10;;;28.10;54.30;;;;;;5090397;28;20550;-67
2022/08/08 03:45:01;;;;;;;2.40;2.20;;;28.20;54.20;;;;;;5078375;28;20449;-68
2022/08/08 03:47:58;;;;;;;2.07;1.97;;;28.20;54.10;;;;;;5079447;28;20485;-67
2022/08/08 03:50:29;;;;;;;2.17;2.07;;;28.20;54.00;;;;;;5091245;28;20448;-67
2022/08/08 03:53:06;;;;;;;2.87;2.10;;;28.20;53.70;;;;;;5091422;28;20471;-67
2022/08/08 03:55:40;;;;;;;2.53;2.43;;;28.30;53.90;;;;;;5066599;28;20496;-67
2022/08/08 03:58:33;;;;;;;2.73;2.63;;;28.30;53.80;;;;;;5095766;28;20505;-68
2022/08/08 04:01:17;;;;;;;2.80;2.60;;;28.30;53.60;;;;;;5075323;28;20460;-67
2022/08/08 04:03:55;;;;;;;2.30;2.20;;;28.30;53.60;;;;;;5091310;28;20464;-67
2022/08/08 04:06:29;;;;;;;2.40;2.30;;;28.30;53.70;;;;;;5088115;28;20578;-67
2022/08/08 04:09:03;;;;;;;2.53;2.33;;;28.40;53.60;;;;;;5093390;28;20583;-67
2022/08/08 04:11:43;;;;;;;2.87;2.60;;;28.40;53.60;;;;;;5095057;28;20470;-67
2022/08/08 04:14:47;;;;;;;2.33;2.23;;;28.40;53.60;;;;;;5091385;28;20485;-67
2022/08/08 04:17:19;;;;;;;2.67;2.57;;;28.40;53.50;;;;;;5075776;28;20867;-68
2022/08/08 04:20:08;;;;;;;2.40;2.30;;;28.40;53.50;;;;;;5078054;28;20460;-67
2022/08/08 04:22:37;;;;;;;2.03;1.93;;;28.40;53.60;;;;;;5092786;28;20510;-67
2022/08/08 04:25:08;;;;;;;2.07;1.97;;;28.50;53.50;;;;;;5075672;28;20518;-67
2022/08/08 04:27:44;;;;;;;2.70;2.60;;;28.40;52.70;;;;;;5084821;28;20491;-67
2022/08/08 04:30:32;;;;;;;3.23;3.03;;;28.40;52.30;;;;;;5106924;28;21128;-67
2022/08/08 04:33:11;;;;;;;3.20;3.10;;;28.00;52.30;;;;;;5087519;28;20463;-67
2022/08/08 04:35:43;;;;;;;3.70;3.50;;;27.80;52.80;;;;;;5088481;28;20463;-67
2022/08/08 04:38:19;;;;;;;3.30;3.10;;;27.40;53.20;;;;;;5082874;28;20490;-67
2022/08/08 04:40:50;;;;;;;3.50;3.20;;;27.20;54.50;;;;;;5075915;28;20483;-67
2022/08/08 04:43:24;;;;;;;3.17;2.70;;;27.00;54.60;;;;;;5081181;28;20457;-67
2022/08/08 04:46:16;;;;;;;2.70;2.20;;;27.00;55.90;;;;;;5070881;28;20472;-67
2022/08/08 04:48:47;;;;;;;2.93;2.73;;;27.20;55.20;;;;;;5083967;28;20483;-67
2022/08/08 04:51:15;;;;;;;2.50;2.30;;;27.30;54.90;;;;;;5094635;28;20481;-67
2022/08/08 04:53:55;;;;;;;3.00;2.73;;;27.30;54.40;;;;;;5080538;28;20449;-67
2022/08/08 04:56:43;;;;;;;3.53;2.73;;;27.50;55.00;;;;;;5084300;28;20547;-67
2022/08/08 04:59:13;;;;;;;2.47;2.37;;;27.60;55.20;;;;;;5088877;28;20493;-67
2022/08/08 05:01:43;;;;;;;2.67;2.57;;;27.70;54.70;;;;;;5083086;28;20551;-67
2022/08/08 05:04:16;;;;;;;2.63;2.53;;;27.80;54.10;;;;;;5081891;28;20511;-67
2022/08/08 05:06:46;;;;;;;2.50;2.40;;;27.90;54.40;;;;;;5082418;28;20513;-67
2022/08/08 05:09:21;;;;;;;3.33;2.90;;;27.90;54.60;;;;;;5087229;28;20472;-67
2022/08/08 05:11:50;;;;;;;2.70;2.50;;;28.00;54.00;;;;;;5088968;28;20551;-67
2022/08/08 05:14:27;;;;;;;2.93;2.43;;;28.00;54.20;;;;;;5082556;28;21414;-67
2022/08/08 05:16:58;;;;;;;2.80;2.70;;;28.00;54.30;;;;;;5082272;28;20465;-67
2022/08/08 05:19:34;;;;;;;3.20;3.00;;;28.00;54.00;;;;;;5085328;28;20445;-67
2022/08/08 05:22:33;;;;;;;2.70;2.50;;;28.10;54.20;;;;;;5068480;28;20482;-67
2022/08/08 05:25:02;;;;;;;3.50;3.30;;;28.20;54.00;;;;;;5082700;28;20454;-67
2022/08/08 05:27:30;;;;;;;2.87;2.70;;;28.10;54.10;;;;;;5092983;28;20726;-67
2022/08/08 05:30:02;;;;;;;6.00;2.63;;;28.20;54.20;;;;;;5087033;28;20470;-67
2022/08/08 05:32:40;;;;;;;2.77;2.53;;;28.20;54.10;;;;;;5085287;28;20446;-68
2022/08/08 05:35:14;;;;;;;3.03;2.83;;;28.20;54.00;;;;;;5081173;28;20451;-68
2022/08/08 05:37:49;;;;;;;3.93;3.60;;;28.20;54.10;;;;;;5082708;28;20470;-67
2022/08/08 05:40:48;;;;;;;5.70;4.93;;;28.30;53.90;;;;;;5079898;28;20493;-68
2022/08/08 05:43:26;;;;;;;17.63;8.53;;;28.30;53.80;;;;;;5086349;28;20462;-68
2022/08/08 05:46:16;;;;;;;10.97;6.57;;;28.30;54.10;;;;;;5086358;28;20501;-68
2022/08/08 05:48:46;;;;;;;7.23;4.70;;;28.20;54.00;;;;;;5078139;28;20609;-68
2022/08/08 05:51:22;;;;;;;4.97;4.33;;;28.20;53.80;;;;;;5077787;28;21298;-68
2022/08/08 05:53:56;;;;;;;4.40;4.00;;;28.20;53.90;;;;;;5079590;28;20507;-68
2022/08/08 05:56:45;;;;;;;4.80;4.17;;;28.20;53.80;;;;;;5072710;28;20463;-68
2022/08/08 05:59:25;;;;;;;5.00;4.10;;;28.20;53.90;;;;;;5079663;28;21044;-68
2022/08/08 06:05:22;;;;;;;3.13;2.93;;;28.20;53.80;;;;;;5087258;28;20479;-68
2022/08/08 06:08:07;;;;;;;3.33;3.13;;;28.20;53.80;;;;;;5069623;28;20466;-68
2022/08/08 06:10:49;;;;;;;3.90;3.60;;;28.20;53.80;;;;;;5080717;28;21500;-68
2022/08/08 06:13:19;;;;;;;5.13;4.77;;;28.20;53.70;;;;;;5078910;28;20469;-68
2022/08/08 06:15:54;;;;;;;3.83;3.53;;;28.20;53.30;;;;;;5084050;28;20506;-68
2022/08/08 06:18:43;;;;;;;4.40;4.00;;;28.20;53.70;;;;;;5088034;28;20479;-68
2022/08/08 06:21:11;;;;;;;3.97;3.67;;;28.20;53.80;;;;;;5080688;28;20454;-68
2022/08/08 06:24:01;;;;;;;4.70;4.30;;;28.20;53.80;;;;;;5086554;28;20444;-68
2022/08/08 06:26:55;;;;;;;3.67;3.47;;;28.20;53.50;;;;;;5084966;28;21144;-68
2022/08/08 06:29:30;;;;;;;4.03;3.70;;;28.10;53.90;;;;;;5076295;28;20476;-68
2022/08/08 06:32:26;;;;;;;3.40;3.20;;;28.10;53.90;;;;;;5097765;28;20505;-68
2022/08/08 06:35:00;;;;;;;4.20;3.90;;;28.10;54.10;;;;;;5083361;28;20462;-68
2022/08/08 06:37:56;;;;;;;3.60;3.30;;;28.10;53.80;;;;;;5081651;28;20517;-69
2022/08/08 06:40:31;;;;;;;3.33;3.17;;;28.10;53.90;;;;;;5078727;28;21543;-69
2022/08/08 06:43:10;;;;;;;3.30;3.10;;;28.10;53.90;;;;;;5074293;28;20803;-68
2022/08/08 06:45:53;;;;;;;3.53;3.23;;;28.20;53.80;;;;;;5077835;28;20957;-68
2022/08/08 06:48:23;;;;;;;4.27;3.87;;;28.30;53.80;;;;;;5084559;28;20461;-68
2022/08/08 06:50:57;;;;;;;3.20;3.00;;;28.20;53.80;;;;;;5067823;28;20463;-68
2022/08/08 06:53:27;;;;;;;5.37;4.90;;;28.20;54.00;;;;;;5069466;28;20467;-67
2022/08/08 06:56:09;;;;;;;5.60;5.20;;;28.10;53.70;;;;;;5066438;28;20462;-67
2022/08/08 06:58:37;;;;;;;4.87;4.57;;;28.00;54.00;;;;;;5084099;28;20489;-67
2022/08/08 07:01:13;;;;;;;4.90;4.60;;;27.80;54.50;;;;;;5072390;28;20483;-67
2022/08/08 07:04:10;;;;;;;5.40;5.10;;;27.60;55.00;;;;;;5082323;28;20949;-67
2022/08/08 07:07:03;;;;;;;5.10;4.70;;;27.40;55.40;;;;;;5068339;28;20488;-68
2022/08/08 07:09:49;;;;;;;4.90;4.60;;;27.30;55.60;;;;;;5075856;28;20497;-68
2022/08/08 07:12:39;;;;;;;5.30;4.47;;;27.20;55.40;;;;;;5085162;28;20505;-67
2022/08/08 07:15:10;;;;;;;4.60;4.30;;;27.20;55.70;;;;;;5078044;28;20477;-68
2022/08/08 07:18:03;;;;;;;4.63;4.33;;;27.10;56.30;;;;;;5078000;28;20508;-67
2022/08/08 07:20:54;;;;;;;4.40;4.10;;;27.00;56.10;;;;;;5071487;28;20470;-67
2022/08/08 07:23:31;;;;;;;4.70;4.30;;;27.00;56.40;;;;;;5090080;28;20465;-68
2022/08/08 07:26:22;;;;;;;4.43;4.03;;;27.00;56.70;;;;;;5077882;28;20467;-68
2022/08/08 07:29:04;;;;;;;4.57;4.27;;;27.00;56.00;;;;;;5090394;28;20453;-67
2022/08/08 07:31:41;;;;;;;4.60;4.30;;;26.90;56.70;;;;;;5082840;28;20469;-67
2022/08/08 07:34:11;;;;;;;5.23;3.20;;;26.90;57.00;;;;;;5084005;28;20443;-68
2022/08/08 07:37:03;;;;;;;5.00;4.70;;;27.00;57.30;;;;;;5068965;28;20878;-66
2022/08/08 07:39:45;;;;;;;4.50;4.20;;;27.00;56.80;;;;;;5072104;28;20537;-67
2022/08/08 07:42:30;;;;;;;3.90;3.60;;;27.00;56.50;;;;;;5089687;28;20446;-67
2022/08/08 07:45:05;;;;;;;3.30;3.10;;;27.00;57.30;;;;;;5075888;28;21047;-66
2022/08/08 07:47:36;;;;;;;3.53;3.33;;;27.20;57.10;;;;;;5070985;28;20474;-66
2022/08/08 07:50:09;;;;;;;3.70;3.40;;;27.40;56.90;;;;;;5080204;28;20471;-67
2022/08/08 07:52:46;;;;;;;3.50;3.30;;;27.50;56.30;;;;;;5081221;28;20521;-66
2022/08/08 07:55:24;;;;;;;2.80;2.60;;;27.70;55.90;;;;;;5075419;28;20471;-67
2022/08/08 07:58:07;;;;;;;2.80;2.60;;;27.80;55.80;;;;;;5078320;28;20542;-67
2022/08/08 08:00:43;;;;;;;3.23;3.03;;;27.90;55.50;;;;;;5082762;28;20812;-66
2022/08/08 08:03:21;;;;;;;5.63;2.80;;;28.00;55.30;;;;;;5080583;28;20518;-66
2022/08/08 08:05:59;;;;;;;3.97;3.67;;;28.10;55.30;;;;;;5077021;28;20939;-66
2022/08/08 08:08:48;;;;;;;3.60;3.27;;;28.20;55.00;;;;;;5082515;28;20473;-66
2022/08/08 08:11:26;;;;;;;3.20;3.00;;;28.20;55.00;;;;;;5082152;28;20471;-66
2022/08/08 08:14:19;;;;;;;3.20;3.00;;;28.30;54.90;;;;;;5088885;28;20450;-66
2022/08/08 08:16:50;;;;;;;3.43;3.23;;;28.20;54.90;;;;;;5092303;28;20472;-66
2022/08/08 08:19:25;;;;;;;3.13;3.03;;;28.20;54.90;;;;;;5080630;28;20838;-65
2022/08/08 08:22:00;;;;;;;3.00;2.80;;;28.30;54.80;;;;;;5073400;28;20464;-65
2022/08/08 08:24:40;;;;;;;16.93;3.10;;;28.40;54.70;;;;;;5074422;28;20567;-66
2022/08/08 08:27:15;;;;;;;3.00;2.80;;;28.40;54.70;;;;;;5094013;28;20461;-65
2022/08/08 08:29:46;;;;;;;3.40;3.13;;;28.30;54.70;;;;;;5082455;28;20481;-66
2022/08/08 08:32:20;;;;;;;3.37;3.13;;;28.30;55.00;;;;;;5085981;28;20467;-65
2022/08/08 08:35:09;;;;;;;3.43;3.23;;;28.40;54.80;;;;;;5075210;28;20506;-65
2022/08/08 08:37:43;;;;;;;3.20;3.00;;;28.40;54.40;;;;;;5080134;28;20460;-65
2022/08/08 08:40:33;;;;;;;3.30;3.10;;;28.40;54.70;;;;;;5086846;28;20602;-65
2022/08/08 08:43:06;;;;;;;2.73;2.63;;;28.40;54.50;;;;;;5090139;28;20448;-65
2022/08/08 08:45:43;;;;;;;2.93;2.67;;;28.30;54.70;;;;;;5079134;28;20546;-65
2022/08/08 08:48:12;;;;;;;3.50;2.80;;;28.20;54.80;;;;;;5078735;28;20509;-65
2022/08/08 08:50:50;;;;;;;3.30;2.47;;;28.20;54.80;;;;;;5074718;28;20482;-65
2022/08/08 08:53:20;;;;;;;3.20;2.97;;;28.20;54.80;;;;;;5076957;28;21548;-66
2022/08/08 08:56:14;;;;;;;3.50;3.30;;;28.20;54.80;;;;;;5085574;28;20500;-65
2022/08/08 08:58:53;;;;;;;3.10;2.90;;;28.20;54.90;;;;;;5077965;28;20951;-65
2022/08/08 09:01:30;;;;;;;4.83;3.13;;;28.20;54.90;;;;;;5077047;28;20475;-65
2022/08/08 09:04:01;;;;;;;3.03;2.83;;;28.30;54.90;;;;;;5090341;28;21039;-65
2022/08/08 09:06:40;;;;;;;2.47;2.33;;;28.30;54.80;;;;;;5077767;28;21362;-69
2022/08/08 09:09:22;;;;;;;2.80;2.70;;;28.20;54.90;;;;;;5063110;28;20804;-68
2022/08/08 09:12:14;;;;;;;3.00;2.80;;;28.20;54.90;;;;;;5057406;28;20473;-69
2022/08/08 09:14:45;;;;;;;2.73;2.63;;;28.10;55.10;;;;;;5050983;28;20490;-69
2022/08/08 09:17:18;;;;;;;3.20;3.00;;;28.00;55.20;;;;;;5056247;28;20472;-68
2022/08/08 09:20:09;;;;;;;2.90;2.70;;;27.90;55.40;;;;;;5062688;28;20449;-69
2022/08/08 09:22:58;;;;;;;2.93;2.83;;;27.90;55.10;;;;;;5049405;28;21039;-69
2022/08/08 09:25:28;;;;;;;3.40;3.17;;;28.00;55.20;;;;;;5052093;28;20492;-69
2022/08/08 09:28:16;;;;;;;2.90;2.80;;;27.90;55.20;;;;;;5061170;28;20579;-69
2022/08/08 09:31:14;;;;;;;2.97;2.77;;;27.90;55.20;;;;;;5047415;28;20862;-69
2022/08/08 09:33:52;;;;;;;2.80;2.70;;;27.90;55.20;;;;;;5055301;28;20490;-68
2022/08/08 09:36:47;;;;;;;3.30;3.10;;;27.90;55.30;;;;;;5070493;28;20558;-66
2022/08/08 09:39:47;;;;;;;2.87;2.73;;;28.00;54.50;;;;;;5082784;28;20443;-65
2022/08/08 09:42:22;;;;;;;3.27;2.97;;;28.10;55.20;;;;;;5056940;28;20453;-66
2022/08/08 09:45:04;;;;;;;3.33;3.03;;;28.30;54.60;;;;;;5065779;28;20471;-67
2022/08/08 09:47:44;;;;;;;3.30;3.13;;;28.50;53.70;;;;;;5073370;28;20450;-67
2022/08/08 09:50:34;;;;;;;2.90;2.60;;;28.60;52.90;;;;;;5082649;28;20480;-67
2022/08/08 09:53:08;;;;;;;3.30;3.10;;;28.70;53.00;;;;;;5079257;28;20542;-67
2022/08/08 09:55:52;;;;;;;3.00;2.80;;;28.80;53.10;;;;;;5067042;28;20461;-68
2022/08/08 09:58:39;;;;;;;2.80;2.70;;;28.90;54.00;;;;;;5080199;28;20495;-67
2022/08/08 10:01:12;;;;;;;3.57;3.07;;;28.90;53.70;;;;;;5072389;28;20437;-68
2022/08/08 10:04:06;;;;;;;4.00;3.73;;;28.90;53.30;;;;;;5079454;28;20446;-68
2022/08/08 10:06:42;;;;;;;3.30;3.10;;;29.00;52.40;;;;;;5079772;28;20511;-69
2022/08/08 10:09:12;;;;;;;2.80;2.70;;;28.80;53.40;;;;;;5083739;28;20473;-69
2022/08/08 10:11:47;;;;;;;3.20;3.00;;;28.70;53.60;;;;;;5084894;28;20516;-68
2022/08/08 10:14:38;;;;;;;2.63;2.50;;;28.60;53.60;;;;;;5058059;28;20456;-68
2022/08/08 10:17:09;;;;;;;4.10;3.30;;;28.50;53.90;;;;;;5075936;28;20458;-68
2022/08/08 10:20:02;;;;;;;3.23;3.13;;;28.40;53.40;;;;;;5057416;28;20478;-68
2022/08/08 10:22:33;;;;;;;2.80;2.60;;;28.40;53.70;;;;;;5079518;28;20948;-68
2022/08/08 10:25:06;;;;;;;3.30;3.10;;;28.50;53.90;;;;;;5076302;28;20468;-69
2022/08/08 10:27:43;;;;;;;2.97;2.77;;;28.50;53.70;;;;;;5082355;28;20457;-69
2022/08/08 10:30:12;;;;;;;3.07;2.87;;;28.50;53.70;;;;;;5076129;28;20484;-68
2022/08/08 10:33:01;;;;;;;3.77;3.57;;;28.50;53.80;;;;;;5070697;28;20450;-68
2022/08/08 10:35:31;;;;;;;3.33;3.13;;;28.40;53.80;;;;;;5081794;28;20464;-68
2022/08/08 10:38:20;;;;;;;2.93;2.73;;;28.30;53.70;;;;;;5082704;28;20585;-70
2022/08/08 10:40:52;;;;;;;2.40;2.30;;;28.30;53.60;;;;;;5080357;28;20459;-68
2022/08/08 10:43:22;;;;;;;3.30;3.00;;;28.30;53.60;;;;;;5079766;28;20582;-69
2022/08/08 10:45:50;;;;;;;2.30;2.20;;;28.30;53.70;;;;;;5082165;28;20444;-68
2022/08/08 10:48:32;;;;;;;2.33;2.23;;;28.20;53.80;;;;;;5072179;28;20816;-68
2022/08/08 10:51:23;;;;;;;2.87;2.67;;;28.20;53.80;;;;;;5082204;28;20491;-69
2022/08/08 10:53:55;;;;;;;2.60;2.50;;;28.10;53.90;;;;;;5081263;28;20444;-68
2022/08/08 10:56:33;;;;;;;2.90;2.80;;;28.20;53.70;;;;;;5068103;28;20469;-68
2022/08/08 10:59:06;;;;;;;3.07;2.87;;;28.20;53.80;;;;;;5080913;28;20837;-68
2022/08/08 11:01:37;;;;;;;2.70;2.60;;;28.20;53.60;;;;;;5063401;28;20470;-69
2022/08/08 11:04:09;;;;;;;3.47;2.60;;;28.20;53.50;;;;;;5075457;28;20479;-67
2022/08/08 11:06:40;;;;;;;2.77;2.57;;;28.30;52.40;;;;;;5076874;28;20602;-68
2022/08/08 11:09:16;;;;;;;2.70;2.60;;;28.30;52.50;;;;;;5074621;28;20509;-68
2022/08/08 11:11:51;;;;;;;2.60;2.40;;;28.40;53.10;;;;;;5080520;28;20477;-69
2022/08/08 11:14:49;;;;;;;2.63;2.53;;;28.40;53.20;;;;;;5077063;28;20507;-69
2022/08/08 11:17:22;;;;;;;2.50;2.40;;;28.40;53.20;;;;;;5072452;28;20450;-69
2022/08/08 11:20:14;;;;;;;3.70;2.60;;;28.30;53.40;;;;;;5073919;28;20455;-69
2022/08/08 11:22:50;;;;;;;2.63;2.53;;;28.40;53.30;;;;;;5070796;28;20960;-69
2022/08/08 11:25:22;;;;;;;2.57;2.37;;;28.50;53.20;;;;;;5073708;28;20953;-69
2022/08/08 11:28:13;;;;;;;5.00;2.90;;;28.50;53.00;;;;;;5073457;28;20886;-69
2022/08/08 11:30:42;;;;;;;3.80;3.33;;;28.50;52.60;;;;;;5082588;28;20503;-68
2022/08/08 11:33:22;;;;;;;3.80;3.53;;;28.40;52.70;;;;;;5075461;28;20539;-69
2022/08/08 11:36:13;;;;;;;3.50;3.20;;;28.30;52.70;;;;;;5073821;28;20550;-69
2022/08/08 11:38:45;;;;;;;4.90;2.60;;;28.20;52.90;;;;;;5061741;28;20956;-69
2022/08/08 11:41:23;;;;;;;3.40;3.10;;;28.20;53.00;;;;;;5092170;28;20429;-69
2022/08/08 11:43:54;;;;;;;2.90;2.70;;;28.30;52.80;;;;;;5055532;28;20426;-69
2022/08/08 11:46:26;;;;;;;5.67;3.90;;;28.30;53.00;;;;;;5070673;28;20500;-66
2022/08/08 11:49:02;;;;;;;3.50;3.30;;;28.20;53.20;;;;;;5060752;28;21021;-67
2022/08/08 11:51:34;;;;;;;2.97;2.53;;;28.20;53.30;;;;;;5080881;28;20515;-66
2022/08/08 11:54:29;;;;;;;3.50;3.20;;;28.20;53.50;;;;;;5067660;28;20649;-66
2022/08/08 11:57:18;;;;;;;2.33;2.23;;;28.20;53.40;;;;;;5084076;28;20480;-66
2022/08/08 11:59:59;;;;;;;3.13;2.83;;;28.30;53.20;;;;;;5084038;28;20455;-67
2022/08/08 12:02:48;;;;;;;3.00;2.70;;;28.30;53.10;;;;;;5065008;28;20563;-67
2022/08/08 12:05:19;;;;;;;3.70;3.50;;;28.30;53.10;;;;;;5074338;28;20495;-66
2022/08/08 12:07:53;;;;;;;2.33;2.23;;;28.30;53.00;;;;;;5081245;28;20593;-67
2022/08/08 12:10:26;;;;;;;4.97;2.77;;;28.30;52.80;;;;;;5081232;28;20468;-67
2022/08/08 12:13:02;;;;;;;2.30;2.20;;;28.30;52.70;;;;;;5081807;28;20557;-69
2022/08/08 12:15:32;;;;;;;3.10;2.83;;;28.20;52.50;;;;;;5085136;28;20557;-70
2022/08/08 12:18:16;;;;;;;2.67;2.50;;;28.10;52.10;;;;;;5079878;28;20921;-69
2022/08/08 12:20:48;;;;;;;2.57;2.37;;;28.10;52.00;;;;;;5077314;28;20472;-70
2022/08/08 12:23:27;;;;;;;2.40;2.20;;;28.10;51.80;;;;;;5077788;28;20492;-69
2022/08/08 12:26:22;;;;;;;2.40;2.30;;;28.20;51.70;;;;;;5085905;28;20855;-69
2022/08/08 12:29:18;;;;;;;2.20;2.10;;;28.20;51.70;;;;;;5079851;28;20446;-69
2022/08/08 12:32:00;;;;;;;2.10;2.00;;;28.20;51.30;;;;;;5065769;28;20476;-68
2022/08/08 12:34:44;;;;;;;2.27;2.10;;;28.20;51.20;;;;;;5068950;28;20503;-69
2022/08/08 12:37:20;;;;;;;2.00;1.90;;;28.20;51.00;;;;;;5081576;28;20994;-68
2022/08/08 12:39:49;;;;;;;2.13;2.03;;;28.30;50.90;;;;;;5076654;28;20449;-68
2022/08/08 12:42:30;;;;;;;2.10;2.00;;;28.30;50.70;;;;;;5069586;28;20472;-69
2022/08/08 12:45:08;;;;;;;2.30;2.20;;;28.30;50.60;;;;;;5076393;28;20939;-69
2022/08/08 12:48:01;;;;;;;2.70;2.50;;;28.40;51.30;;;;;;5078296;28;20950;-69
2022/08/08 12:50:46;;;;;;;1.97;1.87;;;28.60;51.10;;;;;;5076757;28;21183;-70
2022/08/08 12:53:23;;;;;;;2.40;2.27;;;28.80;51.20;;;;;;5062364;28;20562;-69
2022/08/08 12:55:57;;;;;;;2.97;2.77;;;28.90;50.60;;;;;;5072067;28;20453;-64
2022/08/08 12:58:50;;;;;;;2.17;2.03;;;29.00;50.10;;;;;;5074872;28;20445;-65
2022/08/08 13:01:18;;;;;;;1.97;1.90;;;29.20;50.00;;;;;;5079160;28;20528;-65
2022/08/08 13:04:13;;;;;;;2.80;2.60;;;29.30;50.30;;;;;;5069173;28;20523;-65
2022/08/08 13:06:55;;;;;;;2.30;2.20;;;29.40;49.30;;;;;;5081020;28;20516;-65
2022/08/08 13:09:37;;;;;;;2.60;2.50;;;29.50;49.50;;;;;;5079759;28;20454;-64
2022/08/08 13:12:27;;;;;;;2.40;2.20;;;29.60;49.50;;;;;;5081794;28;21235;-64
2022/08/08 13:15:10;;;;;;;2.23;2.03;;;29.70;49.20;;;;;;5080653;28;20543;-64
2022/08/08 13:17:41;;;;;;;1.90;1.80;;;29.70;49.10;;;;;;5082691;28;20456;-65
2022/08/08 13:20:29;;;;;;;2.10;2.00;;;29.70;48.80;;;;;;5082290;28;20549;-65
2022/08/08 13:22:58;;;;;;;2.10;2.00;;;29.80;48.50;;;;;;5088726;28;20449;-64
2022/08/08 13:25:47;;;;;;;1.90;1.80;;;29.70;48.80;;;;;;5086280;28;20449;-65
2022/08/08 13:28:29;;;;;;;1.93;1.83;;;29.60;48.50;;;;;;5083249;28;20465;-65
2022/08/08 13:31:01;;;;;;;2.10;2.00;;;29.70;48.50;;;;;;5073385;28;20892;-65
2022/08/08 13:33:40;;;;;;;1.80;1.70;;;29.80;48.10;;;;;;5072666;28;21227;-64
2022/08/08 13:36:13;;;;;;;1.87;1.77;;;29.80;48.00;;;;;;5070154;28;20461;-64
2022/08/08 13:38:44;;;;;;;1.90;1.80;;;29.80;47.70;;;;;;5067487;28;21067;-65
2022/08/08 13:41:14;;;;;;;2.00;1.90;;;29.90;47.00;;;;;;5070166;28;20451;-65
2022/08/08 13:43:45;;;;;;;1.80;1.70;;;29.90;47.10;;;;;;5071387;28;20444;-66
2022/08/08 13:46:16;;;;;;;2.23;2.13;;;29.90;47.40;;;;;;5076367;28;20447;-66
2022/08/08 13:48:56;;;;;;;1.70;1.60;;;29.80;47.70;;;;;;5074499;28;20441;-66
2022/08/08 13:51:39;;;;;;;2.90;2.70;;;29.90;47.20;;;;;;5073850;28;20484;-66
2022/08/08 13:54:21;;;;;;;2.40;2.20;;;29.90;47.50;;;;;;5081954;28;20508;-65
2022/08/08 13:57:06;;;;;;;3.40;2.47;;;29.90;47.50;;;;;;5078568;28;20449;-65
2022/08/08 13:59:42;;;;;;;2.70;2.20;;;30.00;47.40;;;;;;5079664;28;20456;-66
2022/08/08 14:02:18;;;;;;;2.17;2.00;;;30.00;47.30;;;;;;5078376;28;20541;-66
2022/08/08 14:04:55;;;;;;;2.97;2.47;;;30.10;47.10;;;;;;5078271;28;20564;-69
2022/08/08 14:07:34;;;;;;;3.13;2.90;;;30.10;47.10;;;;;;5067415;28;20469;-69
2022/08/08 14:10:07;;;;;;;3.50;2.80;;;30.10;47.00;;;;;;5077447;28;20923;-69
2022/08/08 14:12:45;;;;;;;3.37;2.97;;;30.00;47.00;;;;;;5074836;28;20931;-66
2022/08/08 14:15:24;;;;;;;3.13;2.60;;;30.10;47.10;;;;;;5082275;28;20437;-66
2022/08/08 14:18:13;;;;;;;4.07;3.20;;;30.10;46.70;;;;;;5076521;28;20452;-66
2022/08/08 14:21:03;;;;;;;2.80;2.60;;;30.20;47.00;;;;;;5081012;28;20450;-67
2022/08/08 14:23:43;;;;;;;3.70;3.10;;;30.30;46.90;;;;;;5057666;28;21035;-68